Time;durP1;ratioP1;P1;durP2;ratioP2;P2;SDS_P1;SDS_P2;PMS_P1;PMS_P2;Temp;Humidity;BMP_temperature;BMP_pressure;BME280_temperature;BME280_humidity;BME280_pressure;Samples;Min_cycle;Max_cycle;Signal;HPM_P1;HPM_P2
2022/11/29 00:01:59;;;;;;;;;;;;;;;12.71;50.95;100676.94;4998357;27;110411;-63
2022/11/29 00:04:25;;;;;;;;;;;;;;;12.72;51.26;100675.84;5019258;27;128434;-63
2022/11/29 00:06:51;;;;;;;;;;;;;;;12.71;51.00;100677.75;4995592;27;127955;-65
2022/11/29 00:09:17;;;;;;;;;;;;;;;12.70;50.88;100678.84;5012955;27;97997;-66
2022/11/29 00:14:28;;;;;;;;;;;;;;;12.70;51.26;100673.44;5019403;27;97997;-63
2022/11/29 00:16:57;;;;;;;;;;;;;;;12.70;51.20;100672.63;5017256;27;98238;-65
2022/11/29 00:19:23;;;;;;;;;;;;;;;12.70;51.17;100675.31;5015749;27;98733;-63
2022/11/29 00:21:49;;;;;;;;;;;;;;;12.70;51.03;100676.13;5012132;27;100396;-65
2022/11/29 00:24:15;;;;;;;;;;;;;;;12.70;51.20;100675.31;5015158;27;98173;-66
2022/11/29 00:26:41;;;;;;;;;;;;;;;12.69;51.12;100677.22;5015551;27;104825;-66
2022/11/29 00:29:08;;;;;;;;;;;;;;;12.70;51.24;100675.31;5014852;27;98112;-65
2022/11/29 00:31:34;;;;;;;;;;;;;;;12.69;51.05;100673.69;4991152;27;104527;-65
2022/11/29 00:34:01;;;;;;;;;;;;;;;12.69;51.02;100674.50;4998712;27;98346;-63
2022/11/29 00:36:27;;;;;;;;;;;;;;;12.69;51.18;100677.22;5012946;27;98475;-63
2022/11/29 00:38:53;;;;;;;;;;;;;;;12.69;51.23;100673.69;5018570;27;98166;-63
2022/11/29 00:41:19;;;;;;;;;;;;;;;12.70;51.21;100680.72;5014916;27;110404;-63
2022/11/29 00:43:45;;;;;;;;;;;;;;;12.68;51.44;100674.78;5012885;27;128179;-63
2022/11/29 00:46:11;;;;;;;;;;;;;;;12.68;51.07;100677.47;5014685;27;126006;-66
2022/11/29 00:48:37;;;;;;;;;;;;;;;12.67;50.90;100673.97;5020260;27;98092;-65
2022/11/29 00:51:03;;;;;;;;;;;;;;;12.68;51.11;100677.47;5003594;27;97829;-63
2022/11/29 00:53:29;;;;;;;;;;;;;;;12.67;51.43;100673.97;4990110;27;116425;-65
2022/11/29 00:55:55;;;;;;;;;;;;;;;12.67;51.05;100679.38;5020036;27;98332;-64
2022/11/29 00:58:21;;;;;;;;;;;;;;;12.67;51.32;100665.84;5020610;27;127607;-62
2022/11/29 01:00:47;;;;;;;;;;;;;;;12.67;51.27;100671.25;4987878;27;98082;-63
2022/11/29 01:03:14;;;;;;;;;;;;;;;12.67;51.16;100673.97;5010765;27;117175;-63
2022/11/29 01:05:41;;;;;;;;;;;;;;;12.68;51.42;100666.66;5014063;27;119168;-63
2022/11/29 01:08:07;;;;;;;;;;;;;;;12.69;51.32;100665.56;4998128;27;98355;-63
2022/11/29 01:10:33;;;;;;;;;;;;;;;12.67;51.07;100671.25;5009304;27;111668;-65
2022/11/29 01:12:59;;;;;;;;;;;;;;;12.68;51.35;100669.38;5017104;27;128314;-63
2022/11/29 01:15:27;;;;;;;;;;;;;;;12.68;51.41;100669.38;5007279;27;128011;-63
2022/11/29 01:17:53;;;;;;;;;;;;;;;12.67;51.06;100668.56;4984835;27;128051;-63
2022/11/29 01:20:19;;;;;;;;;;;;;;;12.66;51.13;100661.53;5010226;27;97918;-65
2022/11/29 01:22:45;;;;;;;;;;;;;;;12.67;51.04;100667.75;5011582;27;123191;-66
2022/11/29 01:25:11;;;;;;;;;;;;;;;12.68;51.00;100674.78;5017649;27;126942;-63
2022/11/29 01:27:37;;;;;;;;;;;;;;;12.67;51.08;100670.47;5017014;27;126086;-63
2022/11/29 01:30:04;;;;;;;;;;;;;;;12.65;51.21;100673.41;5007740;27;113193;-65
2022/11/29 01:32:30;;;;;;;;;;;;;;;12.66;51.06;100672.34;4991817;27;119544;-65
2022/11/29 01:34:56;;;;;;;;;;;;;;;12.67;50.96;100673.16;5014834;27;130224;-66
2022/11/29 01:37:22;;;;;;;;;;;;;;;12.67;50.95;100675.88;5007852;27;127437;-63
2022/11/29 01:39:48;;;;;;;;;;;;;;;12.67;51.01;100675.88;5014039;27;98275;-65
2022/11/29 01:42:14;;;;;;;;;;;;;;;12.65;51.01;100669.91;5002775;27;99196;-63
2022/11/29 01:44:48;;;;;;;;;;;;;;;12.63;51.16;100667.50;4999006;27;122034;-65
2022/11/29 01:47:15;;;;;;;;;;;;;;;12.65;51.28;100665.31;5013506;27;97830;-63
2022/11/29 01:49:43;;;;;;;;;;;;;;;12.66;51.21;100672.34;4998758;27;113095;-63
2022/11/29 01:52:10;;;;;;;;;;;;;;;12.65;51.08;100669.91;5007821;27;112707;-65
2022/11/29 01:54:41;;;;;;;;;;;;;;;12.64;51.29;100669.09;4989968;27;127074;-63
2022/11/29 01:57:07;;;;;;;;;;;;;;;12.65;51.03;100670.72;4978290;27;128765;-65
2022/11/29 01:59:34;;;;;;;;;;;;;;;12.64;51.29;100661.00;4998434;27;112465;-63
2022/11/29 02:02:14;;;;;;;;;;;;;;;12.65;51.02;100669.91;4974501;27;98556;-63
2022/11/29 02:04:41;;;;;;;;;;;;;;;12.65;51.16;100670.72;4997451;27;99174;-63
2022/11/29 02:07:06;;;;;;;;;;;;;;;12.65;51.06;100669.91;4973286;27;99928;-63
2022/11/29 02:09:35;;;;;;;;;;;;;;;12.65;51.23;100672.63;5009685;27;111308;-65
2022/11/29 02:12:04;;;;;;;;;;;;;;;12.64;50.88;100673.72;5004272;27;128004;-66
2022/11/29 02:14:59;;;;;;;;;;;;;;;12.65;51.07;100676.13;4994273;27;98790;-66
2022/11/29 02:17:45;;;;;;;;;;;;;;;12.64;51.26;100677.22;4987363;27;97978;-63
2022/11/29 02:20:20;;;;;;;;;;;;;;;12.66;51.21;100675.06;4999718;27;111419;-65
2022/11/29 02:23:20;;;;;;;;;;;;;;;12.65;51.25;100676.13;5012441;27;98210;-66
2022/11/29 02:25:58;;;;;;;;;;;;;;;12.66;51.13;100682.38;4991913;27;98531;-66
2022/11/29 02:29:02;;;;;;;;;;;;;;;12.65;51.17;100678.03;4987118;27;98258;-65
2022/11/29 02:31:39;;;;;;;;;;;;;;;12.65;51.02;100681.53;5002283;27;97917;-65
2022/11/29 02:34:05;;;;;;;;;;;;;;;12.65;51.14;100681.53;4984138;27;104992;-63
2022/11/29 02:36:34;;;;;;;;;;;;;;;12.67;51.21;100689.38;5005673;27;99862;-65
2022/11/29 02:39:23;;;;;;;;;;;;;;;12.65;51.09;100681.53;4991129;27;128593;-63
2022/11/29 02:41:56;;;;;;;;;;;;;;;12.65;51.07;100686.94;4981405;27;98921;-66
2022/11/29 02:44:39;;;;;;;;;;;;;;;12.65;51.11;100686.94;4976793;27;125643;-63
2022/11/29 02:47:26;;;;;;;;;;;;;;;12.66;51.05;100688.59;4980231;27;99109;-65
2022/11/29 02:50:16;;;;;;;;;;;;;;;12.65;51.03;100697.75;5012839;27;98022;-63
2022/11/29 02:53:00;;;;;;;;;;;;;;;12.66;50.96;100685.88;5014495;27;97918;-63
2022/11/29 02:55:53;;;;;;;;;;;;;;;12.67;50.93;100686.69;4971229;27;127204;-65
2022/11/29 02:58:37;;;;;;;;;;;;;;;12.68;51.03;100699.13;4994777;27;98508;-65
2022/11/29 03:01:33;;;;;;;;;;;;;;;12.68;51.17;100694.50;4999567;27;98162;-67
2022/11/29 03:04:06;;;;;;;;;;;;;;;12.68;51.03;100694.50;4984732;27;97863;-63
2022/11/29 03:06:55;;;;;;;;;;;;;;;12.68;51.23;100694.50;4980790;27;125312;-63
2022/11/29 03:09:31;;;;;;;;;;;;;;;12.68;51.29;100696.41;4997241;27;127855;-65
2022/11/29 03:12:28;;;;;;;;;;;;;;;12.69;51.20;100700.72;4983330;27;123026;-65
2022/11/29 03:15:01;;;;;;;;;;;;;;;12.68;51.11;100699.91;4998727;27;105495;-65
2022/11/29 03:17:49;;;;;;;;;;;;;;;12.69;51.11;100700.72;4985934;27;109558;-65
2022/11/29 03:20:25;;;;;;;;;;;;;;;12.68;51.18;100710.75;4989508;27;98528;-63
2022/11/29 03:23:19;;;;;;;;;;;;;;;12.69;51.08;100714.25;5007020;27;98182;-63
2022/11/29 03:25:56;;;;;;;;;;;;;;;12.68;51.09;100715.34;4985795;27;97867;-65
2022/11/29 03:28:36;;;;;;;;;;;;;;;12.68;50.87;100715.34;4978271;27;116271;-63
2022/11/29 03:31:09;;;;;;;;;;;;;;;12.68;51.02;100713.44;5005042;27;98831;-63
2022/11/29 03:33:54;;;;;;;;;;;;;;;12.68;51.24;100720.75;4977155;27;97939;-65
2022/11/29 03:37:06;;;;;;;;;;;;;;;12.69;51.14;100716.94;4983229;27;101685;-65
2022/11/29 03:39:51;;;;;;;;;;;;;;;12.67;51.12;100722.66;4974140;27;99137;-63
2022/11/29 03:42:24;;;;;;;;;;;;;;;12.69;51.03;100719.66;5007019;27;114755;-65
2022/11/29 03:44:55;;;;;;;;;;;;;;;12.67;51.19;100730.75;5014265;27;98635;-65
2022/11/29 03:47:25;;;;;;;;;;;;;;;12.68;51.37;100728.88;4981600;27;110501;-65
2022/11/29 03:50:03;;;;;;;;;;;;;;;12.67;51.21;100722.66;4976723;27;101206;-63
2022/11/29 03:52:48;;;;;;;;;;;;;;;12.67;51.22;100721.84;4988399;27;127704;-65
2022/11/29 03:55:30;;;;;;;;;;;;;;;12.66;51.21;100717.53;5004287;27;97957;-63
2022/11/29 03:58:16;;;;;;;;;;;;;;;12.67;50.95;100719.94;4997457;27;97882;-63
2022/11/29 04:00:47;;;;;;;;;;;;;;;12.67;51.19;100719.94;4989764;27;122429;-64
2022/11/29 04:03:28;;;;;;;;;;;;;;;12.67;51.22;100722.66;5006024;27;98396;-63
2022/11/29 04:06:23;;;;;;;;;;;;;;;12.67;50.97;100725.34;4987735;27;126251;-63
2022/11/29 04:09:04;;;;;;;;;;;;;;;12.66;51.31;100722.94;4977596;27;98521;-63
2022/11/29 04:12:05;;;;;;;;;;;;;;;12.66;51.16;100723.75;5012833;27;98182;-63
2022/11/29 04:14:49;;;;;;;;;;;;;;;12.65;51.20;100726.69;4975859;27;98732;-63
2022/11/29 04:17:47;;;;;;;;;;;;;;;12.64;51.20;100731.31;5016216;27;98208;-63
2022/11/29 04:20:22;;;;;;;;;;;;;;;12.64;51.20;100731.31;5002212;27;97790;-66
2022/11/29 04:23:05;;;;;;;;;;;;;;;12.64;51.17;100727.78;4998946;27;127886;-65
2022/11/29 04:25:51;;;;;;;;;;;;;;;12.64;51.17;100736.72;5014495;27;119823;-64
2022/11/29 04:28:45;;;;;;;;;;;;;;;12.64;51.27;100744.03;5002834;27;98457;-64
2022/11/29 04:31:26;;;;;;;;;;;;;;;12.62;50.97;100746.22;5004643;27;98140;-66
2022/11/29 04:33:54;;;;;;;;;;;;;;;12.59;51.13;100744.84;5013700;27;99056;-66
2022/11/29 04:36:32;;;;;;;;;;;;;;;12.57;51.16;100740.78;5017179;27;99648;-65
2022/11/29 04:39:16;;;;;;;;;;;;;;;12.56;51.10;100739.19;5013471;27;98183;-66
2022/11/29 04:42:10;;;;;;;;;;;;;;;12.54;51.38;100744.88;5011942;27;97938;-66
2022/11/29 04:44:57;;;;;;;;;;;;;;;12.51;51.23;100738.09;5016214;27;98926;-64
2022/11/29 04:47:26;;;;;;;;;;;;;;;12.51;51.13;100742.69;4999521;27;128892;-64
2022/11/29 04:50:20;;;;;;;;;;;;;;;12.49;51.03;100744.84;5000981;27;98109;-66
2022/11/29 04:52:58;;;;;;;;;;;;;;;12.49;51.05;100745.66;4967480;27;98235;-64
2022/11/29 04:55:39;;;;;;;;;;;;;;;12.49;51.12;100750.25;4981666;27;123111;-66
2022/11/29 04:58:35;;;;;;;;;;;;;;;12.47;51.28;100753.25;4990502;27;100292;-66
2022/11/29 05:01:27;;;;;;;;;;;;;;;12.47;50.99;100758.66;4997207;27;98712;-66
2022/11/29 05:03:57;;;;;;;;;;;;;;;12.48;51.06;100756.75;4972123;27;112431;-66
2022/11/29 05:06:34;;;;;;;;;;;;;;;12.47;51.32;100757.84;4967168;27;100146;-66
2022/11/29 05:09:26;;;;;;;;;;;;;;;12.46;51.43;100757.03;4979606;27;99241;-64
2022/11/29 05:12:17;;;;;;;;;;;;;;;12.46;51.09;100762.44;4979798;27;98280;-66
2022/11/29 05:15:13;;;;;;;;;;;;;;;12.46;51.01;100770.56;4989595;27;102240;-64
2022/11/29 05:18:01;;;;;;;;;;;;;;;12.43;51.19;100763.00;4989594;27;129176;-64
2022/11/29 05:20:59;;;;;;;;;;;;;;;12.44;51.06;100761.09;4994911;27;98793;-66
2022/11/29 05:23:47;;;;;;;;;;;;;;;12.45;51.24;100768.91;5001735;27;97876;-64
2022/11/29 05:26:26;;;;;;;;;;;;;;;12.46;51.13;100780.56;4986659;27;112036;-64
2022/11/29 05:29:05;;;;;;;;;;;;;;;12.44;51.32;100780.81;4983444;27;125776;-65
2022/11/29 05:32:11;;;;;;;;;;;;;;;12.45;51.32;100776.22;4970760;27;119191;-64
2022/11/29 05:34:44;;;;;;;;;;;;;;;12.45;51.17;100779.72;4986976;27;128384;-64
2022/11/29 05:37:33;;;;;;;;;;;;;;;12.43;50.97;100779.22;5000045;27;112083;-64
2022/11/29 05:40:06;;;;;;;;;;;;;;;12.44;51.10;100791.63;4996533;27;122705;-64
2022/11/29 05:42:52;;;;;;;;;;;;;;;12.44;51.08;100780.03;5007664;27;126763;-66
2022/11/29 05:45:51;;;;;;;;;;;;;;;12.44;51.26;100782.72;4989404;27;122065;-64
2022/11/29 05:48:25;;;;;;;;;;;;;;;12.44;51.02;100788.94;4965110;27;98185;-64
2022/11/29 05:51:18;;;;;;;;;;;;;;;12.42;51.05;100787.59;4993872;27;98756;-66
2022/11/29 05:54:12;;;;;;;;;;;;;;;12.43;50.93;100787.31;4978344;27;128678;-66
2022/11/29 05:57:05;;;;;;;;;;;;;;;12.43;51.19;100791.91;5007432;27;97852;-64
2022/11/29 05:59:31;;;;;;;;;;;;;;;12.43;51.20;100791.91;4998564;27;97905;-66
2022/11/29 06:02:04;;;;;;;;;;;;;;;12.43;51.25;100794.63;4974211;27;127934;-66
2022/11/29 06:04:56;;;;;;;;;;;;;;;12.40;51.19;100795.97;4998143;27;98971;-66
2022/11/29 06:07:48;;;;;;;;;;;;;;;12.43;51.08;100797.31;5016544;27;98076;-66
2022/11/29 06:10:28;;;;;;;;;;;;;;;12.42;51.17;100803.81;4973023;27;107943;-65
2022/11/29 06:13:28;;;;;;;;;;;;;;;12.42;51.41;100801.94;4981723;27;122708;-64
2022/11/29 06:16:26;;;;;;;;;;;;;;;12.42;51.12;100804.63;4995833;27;122327;-63
2022/11/29 06:19:23;;;;;;;;;;;;;;;12.42;51.12;100810.03;5017582;27;98231;-66
2022/11/29 06:22:07;;;;;;;;;;;;;;;12.40;51.28;100814.09;4984966;27;106996;-66
2022/11/29 06:24:40;;;;;;;;;;;;;;;12.42;51.01;100812.75;5015342;27;100675;-66
2022/11/29 06:27:21;;;;;;;;;;;;;;;12.42;51.04;100815.44;5013638;27;99086;-65
2022/11/29 06:30:14;;;;;;;;;;;;;;;12.42;51.23;100818.16;5016567;27;98099;-66
2022/11/29 06:32:46;;;;;;;;;;;;;;;12.42;51.20;100814.63;4999389;27;97950;-65
2022/11/29 06:35:45;;;;;;;;;;;;;;;12.42;51.25;100818.16;5015128;27;98726;-66
2022/11/29 06:38:28;;;;;;;;;;;;;;;12.42;51.24;100820.03;4994773;27;98306;-66
2022/11/29 06:40:55;;;;;;;;;;;;;;;12.42;51.17;100826.25;5003809;27;99639;-64
2022/11/29 06:43:21;;;;;;;;;;;;;;;12.42;51.00;100828.16;5003726;27;97757;-64
2022/11/29 06:45:52;;;;;;;;;;;;;;;12.43;51.18;100832.47;5014771;27;98957;-66
2022/11/29 06:48:24;;;;;;;;;;;;;;;12.43;51.11;100827.06;4982233;27;101261;-64
2022/11/29 06:50:56;;;;;;;;;;;;;;;12.43;51.17;100832.47;5009073;27;98061;-66
2022/11/29 06:53:46;;;;;;;;;;;;;;;12.44;51.08;100828.69;4996828;27;97844;-66
2022/11/29 06:56:23;;;;;;;;;;;;;;;12.44;51.03;100837.59;5016221;27;98597;-64
2022/11/29 06:59:02;;;;;;;;;;;;;;;12.46;51.12;100838.16;4998825;27;123756;-63
2022/11/29 07:01:39;;;;;;;;;;;;;;;12.47;51.17;100842.47;4990129;27;97996;-64
2022/11/29 07:04:08;;;;;;;;;;;;;;;12.47;51.04;100841.66;5016263;27;98115;-66
2022/11/29 07:06:34;;;;;;;;;;;;;;;12.48;51.13;100838.69;5013475;27;103867;-63
2022/11/29 07:09:14;;;;;;;;;;;;;;;12.49;51.23;100847.59;4992274;27;115406;-66
2022/11/29 07:11:40;;;;;;;;;;;;;;;12.51;51.04;100851.66;5018103;27;98859;-63
2022/11/29 07:14:06;;;;;;;;;;;;;;;12.52;51.09;100847.06;5022271;27;111333;-63
2022/11/29 07:16:41;;;;;;;;;;;;;;;12.53;51.01;100849.47;5020899;27;105000;-63
2022/11/29 07:19:35;;;;;;;;;;;;;;;12.55;50.98;100854.63;5020116;27;98929;-64
2022/11/29 07:22:40;;;;;;;;;;;;;;;12.57;51.21;100860.56;5024247;27;127373;-66
2022/11/29 07:25:30;;;;;;;;;;;;;;;12.58;51.17;100854.09;5003872;27;98238;-63
2022/11/29 07:28:49;;;;;;;;;;;;;;;12.59;50.64;100855.72;5004060;27;103459;-66
2022/11/29 07:31:34;;;;;;;;;;;;;;;12.62;50.81;100857.09;4947157;28;98317;-66
2022/11/29 07:34:12;;;;;;;;;;;;;;;12.64;51.10;100865.72;4985589;27;98662;-63
2022/11/29 07:36:54;;;;;;;;;;;;;;;12.65;50.87;100868.16;5019630;27;97801;-63
2022/11/29 07:39:39;;;;;;;;;;;;;;;12.67;50.92;100866.00;4993678;27;102004;-63
2022/11/29 07:42:30;;;;;;;;;;;;;;;12.69;50.94;100866.53;4998279;27;99051;-64
2022/11/29 07:45:23;;;;;;;;;;;;;;;12.71;51.06;100874.38;5012292;27;98050;-63
2022/11/29 07:47:50;;;;;;;;;;;;;;;12.72;50.86;100876.78;5006899;27;97964;-66
2022/11/29 07:50:16;;;;;;;;;;;;;;;12.75;50.94;100883.56;5008886;27;98371;-63
2022/11/29 07:52:42;;;;;;;;;;;;;;;12.75;51.05;100878.97;5015924;27;129555;-66
2022/11/29 07:55:21;;;;;;;;;;;;;;;12.77;50.75;100882.22;5014454;27;98975;-63
2022/11/29 07:57:48;;;;;;;;;;;;;;;12.78;51.04;100891.16;5018897;27;97824;-63
2022/11/29 08:00:14;;;;;;;;;;;;;;;12.80;50.73;100888.97;5005078;27;98696;-65
2022/11/29 08:02:40;;;;;;;;;;;;;;;12.84;50.88;100889.25;5010657;27;99221;-63
2022/11/29 08:05:06;;;;;;;;;;;;;;;12.87;51.02;100894.09;4986877;27;101150;-65
2022/11/29 08:07:36;;;;;;;;;;;;;;;12.89;51.06;100886.53;5013137;27;108734;-65
2022/11/29 08:10:02;;;;;;;;;;;;;;;12.99;51.07;100886.53;5019492;27;98557;-63
2022/11/29 08:12:29;;;;;;;;;;;;;;;13.11;51.04;100886.22;5015904;27;98124;-66
2022/11/29 08:14:54;;;;;;;;;;;;;;;13.23;50.53;100887.56;5005533;27;98039;-63
2022/11/29 08:17:21;;;;;;;;;;;;;;;13.35;50.68;100891.88;5011821;27;113051;-65
2022/11/29 08:19:46;;;;;;;;;;;;;;;13.44;50.53;100899.19;5008373;27;99118;-65
2022/11/29 08:22:12;;;;;;;;;;;;;;;13.55;50.86;100893.72;5018041;27;127506;-63
2022/11/29 08:24:38;;;;;;;;;;;;;;;13.63;50.70;100890.41;5021959;27;126214;-63
2022/11/29 08:27:04;;;;;;;;;;;;;;;13.71;50.67;100896.06;5019823;27;113386;-65
2022/11/29 08:29:31;;;;;;;;;;;;;;;13.79;50.66;100897.38;5009605;27;98896;-63
2022/11/29 08:31:57;;;;;;;;;;;;;;;13.88;50.61;100886.81;4999812;27;100632;-63
2022/11/29 08:34:23;;;;;;;;;;;;;;;13.94;50.52;100883.78;5018065;27;98435;-64
2022/11/29 08:36:49;;;;;;;;;;;;;;;14.02;50.43;100895.94;5019759;27;98129;-63
2022/11/29 08:39:15;;;;;;;;;;;;;;;14.09;50.38;100892.91;5011321;27;124302;-63
2022/11/29 08:41:41;;;;;;;;;;;;;;;14.13;50.58;100900.19;4984152;27;118279;-63
2022/11/29 08:44:07;;;;;;;;;;;;;;;14.18;50.31;100893.94;4997352;27;131622;-66
2022/11/29 08:49:17;;;;;;;;;;;;;;;14.25;50.53;100908.78;5007803;27;97913;-66
2022/11/29 08:51:43;;;;;;;;;;;;;;;14.35;50.16;100901.72;5001663;27;128084;-63
2022/11/29 08:54:09;;;;;;;;;;;;;;;14.42;50.18;100894.03;5016515;27;128780;-63
2022/11/29 08:56:36;;;;;;;;;;;;;;;14.50;50.52;100896.19;5015059;27;112458;-66
2022/11/29 08:59:02;;;;;;;;;;;;;;;14.59;50.49;100904.53;4998392;27;128298;-65
2022/11/29 09:01:28;;;;;;;;;;;;;;;14.68;50.23;100905.53;5020396;27;124103;-65
2022/11/29 09:04:05;;;;;;;;;;;;;;;14.78;49.97;100910.09;5020471;27;103411;-66
2022/11/29 09:06:39;;;;;;;;;;;;;;;14.86;50.05;100910.28;5023002;27;98042;-63
2022/11/29 09:09:05;;;;;;;;;;;;;;;14.93;49.96;100916.19;5004682;27;100543;-65
2022/11/29 09:11:32;;;;;;;;;;;;;;;14.99;49.86;100916.94;5003104;27;129316;-63
2022/11/29 09:13:59;;;;;;;;;;;;;;;15.04;49.90;100907.94;5012104;27;117849;-66
2022/11/29 09:16:27;;;;;;;;;;;;;;;15.10;49.89;100918.47;5001476;27;98019;-65
2022/11/29 09:18:56;;;;;;;;;;;;;;;15.15;50.13;100912.97;5017143;27;98587;-66
2022/11/29 09:21:25;;;;;;;;;;;;;;;15.20;49.90;100914.81;5013700;27;99064;-65
2022/11/29 09:23:57;;;;;;;;;;;;;;;15.23;50.09;100915.06;5014683;27;98135;-63
2022/11/29 09:26:24;;;;;;;;;;;;;;;15.27;49.78;100915.31;4984969;27;99327;-66
2022/11/29 09:28:50;;;;;;;;;;;;;;;15.28;49.79;100916.91;5012532;27;99056;-63
2022/11/29 09:31:16;;;;;;;;;;;;;;;15.29;49.94;100924.00;5012098;27;117611;-63
2022/11/29 09:33:44;;;;;;;;;;;;;;;15.31;50.01;100920.97;5017531;27;127665;-65
2022/11/29 09:36:10;;;;;;;;;;;;;;;15.31;50.18;100921.78;5009899;27;98111;-64
2022/11/29 09:38:36;;;;;;;;;;;;;;;15.31;50.17;100921.78;5019454;27;120969;-63
2022/11/29 09:41:05;;;;;;;;;;;;;;;15.32;50.05;100926.09;5015541;27;125674;-63
2022/11/29 09:43:34;;;;;;;;;;;;;;;15.32;50.02;100930.72;4992731;27;97936;-65
2022/11/29 09:46:14;;;;;;;;;;;;;;;15.30;50.11;100931.03;5014584;27;97717;-65
2022/11/29 09:49:12;;;;;;;;;;;;;;;15.28;50.22;100925.06;4987294;27;98675;-66
2022/11/29 09:51:51;;;;;;;;;;;;;;;15.26;50.24;100926.47;4995235;27;124222;-63
2022/11/29 09:54:45;;;;;;;;;;;;;;;15.23;50.33;100925.94;4998845;27;126500;-66
2022/11/29 09:57:12;;;;;;;;;;;;;;;15.21;50.33;100921.91;4997886;27;112161;-63
2022/11/29 09:59:43;;;;;;;;;;;;;;;15.20;50.44;100931.94;4984737;27;98319;-63
2022/11/29 10:02:31;;;;;;;;;;;;;;;15.19;50.22;100927.59;4989061;27;125890;-65
2022/11/29 10:05:00;;;;;;;;;;;;;;;15.17;50.38;100927.09;4998765;27;101498;-63
2022/11/29 10:07:36;;;;;;;;;;;;;;;15.15;50.53;100931.19;5003000;27;97783;-63
2022/11/29 10:10:21;;;;;;;;;;;;;;;15.11;50.42;100932.84;4987105;27;119821;-63
2022/11/29 10:12:55;;;;;;;;;;;;;;;15.05;50.29;100937.53;4984605;27;98302;-63
2022/11/29 10:15:26;;;;;;;;;;;;;;;15.05;50.68;100934.81;5000908;27;98198;-66
2022/11/29 10:18:04;;;;;;;;;;;;;;;15.02;50.62;100931.84;4967257;27;98065;-62
2022/11/29 10:20:36;;;;;;;;;;;;;;;15.02;50.65;100934.56;4973531;27;120368;-65
2022/11/29 10:23:22;;;;;;;;;;;;;;;15.02;50.59;100932.66;4984645;27;123838;-63
2022/11/29 10:25:50;;;;;;;;;;;;;;;15.02;50.59;100937.28;4996112;27;98225;-66
2022/11/29 10:28:18;;;;;;;;;;;;;;;15.01;50.59;100936.44;4994968;27;112560;-64
2022/11/29 10:30:44;;;;;;;;;;;;;;;15.01;50.46;100936.44;4995448;27;116523;-66
2022/11/29 10:33:31;;;;;;;;;;;;;;;15.01;50.37;100927.50;5013787;27;124582;-63
2022/11/29 10:36:04;;;;;;;;;;;;;;;14.98;50.74;100932.41;4997391;27;122871;-66
2022/11/29 10:38:30;;;;;;;;;;;;;;;14.98;50.72;100931.63;4996699;27;98658;-63
2022/11/29 10:41:07;;;;;;;;;;;;;;;14.95;50.62;100929.47;5004902;27;128206;-65
2022/11/29 10:43:33;;;;;;;;;;;;;;;14.93;50.54;100920.78;5010336;27;122102;-65
2022/11/29 10:45:59;;;;;;;;;;;;;;;14.92;50.73;100928.13;4992449;27;126967;-66
2022/11/29 10:48:27;;;;;;;;;;;;;;;14.92;50.56;100930.03;4998131;27;98177;-63
2022/11/29 10:50:53;;;;;;;;;;;;;;;14.89;50.54;100928.69;4974448;27;98312;-66
2022/11/29 10:53:26;;;;;;;;;;;;;;;14.91;50.49;100936.56;5013992;27;118836;-66
2022/11/29 10:56:21;;;;;;;;;;;;;;;14.91;50.61;100940.09;5008579;27;97987;-65
2022/11/29 10:58:55;;;;;;;;;;;;;;;14.92;50.63;100943.59;4996589;27;97937;-66
2022/11/29 11:01:21;;;;;;;;;;;;;;;14.91;50.39;100940.09;5010315;27;98565;-66
2022/11/29 11:03:53;;;;;;;;;;;;;;;14.92;50.38;100941.69;5016913;27;127813;-63
2022/11/29 11:06:26;;;;;;;;;;;;;;;14.92;50.66;100938.16;4997355;27;119991;-66
2022/11/29 11:09:18;;;;;;;;;;;;;;;14.91;50.62;100942.00;4991875;27;101784;-65
2022/11/29 11:11:52;;;;;;;;;;;;;;;14.89;50.67;100944.16;5015042;27;98871;-65
2022/11/29 11:14:37;;;;;;;;;;;;;;;14.87;50.75;100944.47;4997670;27;98628;-65
2022/11/29 11:17:25;;;;;;;;;;;;;;;14.85;50.78;100945.81;5016146;27;98717;-66
2022/11/29 11:19:55;;;;;;;;;;;;;;;14.83;50.85;100948.84;5009808;27;97979;-63
2022/11/29 11:22:22;;;;;;;;;;;;;;;14.81;50.86;100951.00;5012042;27;99028;-63
2022/11/29 11:24:54;;;;;;;;;;;;;;;14.79;50.83;100953.22;4998337;27;100709;-63
2022/11/29 11:27:53;;;;;;;;;;;;;;;14.79;50.59;100952.41;4996701;27;97850;-65
2022/11/29 11:30:23;;;;;;;;;;;;;;;14.76;50.74;100961.91;4979810;27;111773;-63
2022/11/29 11:33:17;;;;;;;;;;;;;;;14.76;50.62;100961.09;5013626;27;128121;-63
2022/11/29 11:35:43;;;;;;;;;;;;;;;14.73;50.69;100949.72;4989393;27;99118;-63
2022/11/29 11:38:15;;;;;;;;;;;;;;;14.72;50.59;100958.16;5015429;27;127584;-63
2022/11/29 11:40:41;;;;;;;;;;;;;;;14.70;50.85;100954.91;4994451;27;104390;-63
2022/11/29 11:43:14;;;;;;;;;;;;;;;14.70;50.63;100953.00;4995534;27;128057;-65
2022/11/29 11:45:40;;;;;;;;;;;;;;;14.70;50.87;100953.00;4979941;27;98803;-66
2022/11/29 11:48:13;;;;;;;;;;;;;;;14.70;50.77;100957.63;5014875;27;126801;-65
2022/11/29 11:50:51;;;;;;;;;;;;;;;14.69;50.52;100954.09;4971319;27;97877;-63
2022/11/29 11:53:21;;;;;;;;;;;;;;;14.69;50.82;100956.00;4977065;27;99367;-63
2022/11/29 11:56:04;;;;;;;;;;;;;;;14.70;51.00;100952.22;5015925;27;98448;-63
2022/11/29 11:58:50;;;;;;;;;;;;;;;14.69;50.55;100961.41;5002342;27;98176;-63
2022/11/29 12:01:29;;;;;;;;;;;;;;;14.69;50.66;100961.41;5011636;27;98124;-66
2022/11/29 12:04:12;;;;;;;;;;;;;;;14.70;50.66;100968.50;5020253;27;99328;-65
2022/11/29 12:06:51;;;;;;;;;;;;;;;14.69;50.89;100964.94;4986234;27;124979;-65
2022/11/29 12:09:38;;;;;;;;;;;;;;;14.69;50.70;100961.41;5013596;27;99267;-66
2022/11/29 12:12:16;;;;;;;;;;;;;;;14.68;50.88;100966.03;5013253;27;98025;-66
2022/11/29 12:15:02;;;;;;;;;;;;;;;14.69;50.67;100966.84;4993795;27;98023;-66
2022/11/29 12:17:34;;;;;;;;;;;;;;;14.68;50.53;100968.75;4991461;27;99564;-66
2022/11/29 12:20:27;;;;;;;;;;;;;;;14.69;50.87;100969.56;5011780;27;98001;-63
2022/11/29 12:23:11;;;;;;;;;;;;;;;14.68;50.82;100974.19;5010379;27;98033;-66
2022/11/29 12:25:53;;;;;;;;;;;;;;;14.68;50.66;100970.66;5019918;27;98824;-66
2022/11/29 12:28:20;;;;;;;;;;;;;;;14.67;50.82;100974.47;5002565;27;99072;-63
2022/11/29 12:31:02;;;;;;;;;;;;;;;14.68;50.81;100973.38;5004600;27;118157;-65
2022/11/29 12:33:37;;;;;;;;;;;;;;;14.70;50.83;100971.19;4999914;27;98123;-66
2022/11/29 12:36:17;;;;;;;;;;;;;;;14.70;50.49;100972.00;5008902;27;99432;-64
2022/11/29 12:38:49;;;;;;;;;;;;;;;14.70;50.71;100974.72;5003698;27;99095;-64
2022/11/29 12:41:33;;;;;;;;;;;;;;;14.73;50.47;100982.28;5010954;27;97978;-65
2022/11/29 12:44:04;;;;;;;;;;;;;;;14.75;50.45;100975.78;4982489;27;98593;-63
2022/11/29 12:46:30;;;;;;;;;;;;;;;14.75;50.59;100982.00;5016380;27;98991;-63
2022/11/29 12:49:00;;;;;;;;;;;;;;;14.76;50.61;100980.09;4995376;27;120320;-66
2022/11/29 12:51:54;;;;;;;;;;;;;;;14.75;50.67;100979.28;5001187;27;98323;-63
2022/11/29 12:54:47;;;;;;;;;;;;;;;14.76;50.82;100993.66;5011281;27;98031;-63
2022/11/29 12:57:17;;;;;;;;;;;;;;;14.75;50.63;100992.06;5000128;27;99994;-65
2022/11/29 13:00:01;;;;;;;;;;;;;;;14.75;50.90;100997.47;4999759;27;126347;-65
2022/11/29 13:02:41;;;;;;;;;;;;;;;14.72;50.55;100991.50;4989806;27;124071;-67
2022/11/29 13:05:13;;;;;;;;;;;;;;;14.71;50.65;100994.53;4976411;27;98131;-66
2022/11/29 13:08:08;;;;;;;;;;;;;;;14.70;50.94;100998.34;4998598;27;122823;-66
2022/11/29 13:11:06;;;;;;;;;;;;;;;14.65;50.81;100995.63;4994008;27;99138;-65
2022/11/29 13:13:36;;;;;;;;;;;;;;;14.64;50.79;101002.16;4986771;27;99102;-63
2022/11/29 13:16:24;;;;;;;;;;;;;;;14.60;50.97;101001.91;4999409;27;99084;-63
2022/11/29 13:19:16;;;;;;;;;;;;;;;14.57;50.76;101017.94;5015123;27;98119;-65
2022/11/29 13:22:13;;;;;;;;;;;;;;;14.55;50.88;101015.50;5013996;27;98303;-65
2022/11/29 13:24:44;;;;;;;;;;;;;;;14.50;50.88;101012.81;5016643;27;127793;-63
2022/11/29 13:27:17;;;;;;;;;;;;;;;14.47;51.09;101014.16;4981291;27;106226;-63